createdAt,value
2019-04-27T00:01:55.028Z,6.23
2019-04-27T00:04:25.452Z,6.87
2019-04-27T00:06:55.772Z,6.10
2019-04-27T00:09:33.972Z,6.67
2019-04-27T00:12:16.529Z,5.33
2019-04-27T00:14:43.983Z,6.30
2019-04-27T00:17:21.020Z,6.33
2019-04-27T00:19:49.078Z,6.30
2019-04-27T00:22:19.341Z,6.23
2019-04-27T00:24:48.047Z,6.23
2019-04-27T00:27:16.795Z,5.57
2019-04-27T00:29:45.492Z,5.80
2019-04-27T00:32:14.288Z,6.23
2019-04-27T00:34:43.871Z,5.10
2019-04-27T00:37:19.976Z,5.77
2019-04-27T00:39:50.288Z,5.90
2019-04-27T00:42:18.984Z,6.33
2019-04-27T00:44:47.691Z,6.20
2019-04-27T00:47:16.421Z,5.70
2019-04-27T00:49:45.123Z,6.30
2019-04-27T00:52:14.022Z,6.47
2019-04-27T00:54:44.142Z,6.47
2019-04-27T00:57:20.454Z,6.03
2019-04-27T00:59:59.551Z,6.07
2019-04-27T01:02:29.810Z,6.67
2019-04-27T01:04:58.502Z,7.23
2019-04-27T01:07:27.259Z,5.80
2019-04-27T01:09:55.889Z,5.97
2019-04-27T01:12:24.579Z,6.40
2019-04-27T01:14:53.597Z,6.57
2019-04-27T01:17:22.287Z,5.47
2019-04-27T01:19:50.993Z,7.30
2019-04-27T01:22:19.720Z,5.97
2019-04-27T01:24:49.217Z,7.27
2019-04-27T01:27:19.574Z,5.93
2019-04-27T01:29:49.995Z,5.73
2019-04-27T01:32:20.772Z,6.27
2019-04-27T01:34:49.458Z,6.13
2019-04-27T01:37:19.529Z,6.37
2019-04-27T01:39:50.346Z,6.50
2019-04-27T01:42:19.455Z,6.30
2019-04-27T01:44:49.594Z,6.40
2019-04-27T01:47:18.772Z,6.37
2019-04-27T01:49:49.390Z,7.07
2019-04-27T01:52:19.437Z,6.73
2019-04-27T01:54:49.515Z,6.40
2019-04-27T01:57:19.433Z,6.60
2019-04-27T01:59:48.939Z,6.00
2019-04-27T02:02:26.103Z,6.73
2019-04-27T02:04:59.383Z,6.07
2019-04-27T02:07:30.132Z,6.00
2019-04-27T02:09:58.932Z,5.67
2019-04-27T02:12:29.123Z,6.63
2019-04-27T02:14:58.851Z,5.77
2019-04-27T02:17:28.831Z,7.07
2019-04-27T02:19:59.420Z,6.37
2019-04-27T02:22:29.733Z,6.03
2019-04-27T02:24:59.114Z,6.00
2019-04-27T02:27:29.338Z,6.97
2019-04-27T02:30:05.724Z,6.00
2019-04-27T02:32:36.037Z,5.70
2019-04-27T02:35:06.502Z,7.90
2019-04-27T02:37:35.201Z,7.07
2019-04-27T02:40:05.395Z,6.63
2019-04-27T02:42:35.652Z,6.93
2019-04-27T02:45:05.055Z,7.43
2019-04-27T02:47:33.789Z,7.13
2019-04-27T02:50:02.412Z,6.73
2019-04-27T02:52:35.396Z,6.07
2019-04-27T02:55:05.018Z,6.30
2019-04-27T02:57:33.716Z,6.70
2019-04-27T03:00:02.411Z,7.13
2019-04-27T03:02:35.645Z,6.60
2019-04-27T03:05:04.946Z,6.97
2019-04-27T03:07:33.646Z,6.90
2019-04-27T03:10:02.887Z,6.57
2019-04-27T03:12:33.217Z,7.10
2019-04-27T03:15:06.209Z,7.73
2019-04-27T03:17:36.534Z,7.23
2019-04-27T03:20:14.842Z,6.30
2019-04-27T03:22:45.139Z,6.40
2019-04-27T03:25:15.928Z,6.83
2019-04-27T03:27:46.196Z,6.93
2019-04-27T03:30:16.041Z,6.90
2019-04-27T03:32:44.736Z,6.47
2019-04-27T03:35:14.148Z,7.23
2019-04-27T03:37:44.511Z,6.53
2019-04-27T03:40:13.419Z,6.67
2019-04-27T03:42:43.687Z,6.50
2019-04-27T03:45:12.547Z,7.13
2019-04-27T03:47:41.202Z,6.30
2019-04-27T03:50:12.076Z,6.10
2019-04-27T03:52:59.881Z,6.80
2019-04-27T03:55:30.658Z,6.57
2019-04-27T03:58:21.731Z,6.97
2019-04-27T04:00:52.136Z,7.43
2019-04-27T04:03:21.029Z,6.40
2019-04-27T04:05:52.050Z,6.40
2019-04-27T04:08:20.264Z,8.30
2019-04-27T04:10:50.529Z,7.10
2019-04-27T04:13:22.709Z,6.77
2019-04-27T04:15:52.822Z,7.13
2019-04-27T04:18:21.722Z,7.30
2019-04-27T04:20:50.681Z,6.60
2019-04-27T04:23:20.353Z,8.13
2019-04-27T04:25:50.034Z,7.33
2019-04-27T04:28:19.886Z,6.83
2019-04-27T04:30:50.183Z,6.63
2019-04-27T04:33:20.551Z,6.67
2019-04-27T04:35:49.982Z,7.43
2019-04-27T04:38:21.025Z,6.20
2019-04-27T04:40:51.290Z,6.90
2019-04-27T04:43:36.475Z,7.47
2019-04-27T04:46:23.259Z,6.80
2019-04-27T04:48:53.020Z,6.43
2019-04-27T04:51:21.722Z,6.63
2019-04-27T04:53:51.787Z,7.33
2019-04-27T04:56:20.682Z,6.43
2019-04-27T04:58:49.785Z,6.33
2019-04-27T05:01:19.667Z,7.10
2019-04-27T05:03:48.920Z,7.13
2019-04-27T05:06:18.991Z,7.10
2019-04-27T05:08:49.384Z,7.40
2019-04-27T05:11:19.598Z,8.27
2019-04-27T05:13:49.407Z,7.03
2019-04-27T05:16:18.881Z,8.53
2019-04-27T05:18:49.418Z,6.93
2019-04-27T05:21:32.016Z,7.90
2019-04-27T05:24:00.901Z,7.63
2019-04-27T05:45:03.874Z,9.67
2019-04-27T05:47:51.838Z,9.07
2019-04-27T05:50:21.997Z,9.13
2019-04-27T05:52:49.835Z,9.43
2019-04-27T05:55:19.187Z,9.10
2019-04-27T05:57:49.032Z,9.67
2019-04-27T06:00:19.450Z,9.83
2019-04-27T06:02:48.758Z,9.53
2019-04-27T06:05:19.003Z,10.73
2019-04-27T06:07:48.799Z,11.00
2019-04-27T06:10:19.666Z,10.33
2019-04-27T06:12:48.659Z,10.70
2019-04-27T06:15:17.358Z,10.37
2019-04-27T06:17:46.080Z,10.63
2019-04-27T06:20:14.813Z,11.03
2019-04-27T06:22:43.444Z,11.03
2019-04-27T06:25:12.188Z,10.60
2019-04-27T06:27:40.872Z,11.10
2019-04-27T06:30:09.779Z,11.67
2019-04-27T06:32:39.556Z,11.33
2019-04-27T06:35:09.152Z,10.77
2019-04-27T06:37:39.010Z,13.20
2019-04-27T06:40:09.648Z,12.83
2019-04-27T07:01:53.838Z,11.57
2019-04-27T07:04:22.532Z,11.03
2019-04-27T07:06:55.845Z,9.63
2019-04-27T07:09:21.616Z,10.00
2019-04-27T07:11:50.310Z,10.13
2019-04-27T07:14:19.682Z,8.53
2019-04-27T07:16:48.820Z,8.90
2019-04-27T07:19:19.152Z,9.33
2019-04-27T07:21:49.652Z,9.50
2019-04-27T07:24:19.663Z,10.30
2019-04-27T07:26:48.920Z,8.97
2019-04-27T07:29:19.460Z,10.10
2019-04-27T07:31:49.583Z,9.73
2019-04-27T07:34:18.998Z,10.20
2019-04-27T07:36:49.133Z,9.50
2019-04-27T07:39:19.206Z,9.97
2019-04-27T07:41:48.810Z,9.20
2019-04-27T07:44:25.042Z,9.20
2019-04-27T07:47:11.386Z,9.20
2019-04-27T07:49:40.045Z,9.77
2019-04-27T07:52:08.811Z,9.23
2019-04-27T07:54:38.518Z,8.50
2019-04-27T07:57:09.726Z,9.47
2019-04-27T07:59:41.495Z,8.83
2019-04-27T08:02:10.957Z,9.90
2019-04-27T08:04:40.038Z,9.70
2019-04-27T08:07:09.214Z,9.53
2019-04-27T08:09:39.614Z,9.93
2019-04-27T08:12:08.529Z,9.60
2019-04-27T08:14:38.459Z,9.37
2019-04-27T08:17:07.220Z,9.20
2019-04-27T08:19:35.958Z,9.53
2019-04-27T08:22:04.587Z,8.90
2019-04-27T08:24:33.275Z,9.57
2019-04-27T08:27:19.619Z,8.17
2019-04-27T08:29:49.885Z,7.53
2019-04-27T08:32:20.149Z,8.13
2019-04-27T08:34:49.615Z,9.07
2019-04-27T08:37:18.825Z,7.37
2019-04-27T08:39:49.578Z,7.83
2019-04-27T08:42:19.438Z,7.83
2019-04-27T08:44:49.682Z,7.57
2019-04-27T08:47:19.463Z,6.63
2019-04-27T08:49:49.152Z,7.10
2019-04-27T08:52:19.378Z,6.57
2019-04-27T08:54:49.355Z,6.97
2019-04-27T08:57:18.940Z,6.50
2019-04-27T08:59:48.959Z,8.17
2019-04-27T09:02:19.626Z,7.07
2019-04-27T09:04:49.553Z,7.23
2019-04-27T09:07:32.175Z,7.20
2019-04-27T09:10:08.687Z,7.17
2019-04-27T09:12:53.961Z,7.63
2019-04-27T09:15:24.228Z,7.30
2019-04-27T09:17:54.484Z,7.37
2019-04-27T09:20:24.746Z,6.80
2019-04-27T09:22:53.407Z,6.57
2019-04-27T09:25:22.127Z,6.80
2019-04-27T09:27:50.814Z,7.07
2019-04-27T09:30:19.545Z,7.03
2019-04-27T09:32:48.260Z,6.93
2019-04-27T09:35:16.930Z,7.30
2019-04-27T09:37:45.936Z,6.20
2019-04-27T09:40:14.856Z,7.20
2019-04-27T09:42:43.558Z,6.60
2019-04-27T09:45:12.482Z,6.77
2019-04-27T09:47:41.116Z,6.80
2019-04-27T09:50:10.315Z,6.10
2019-04-27T09:52:39.043Z,6.53
2019-04-27T09:55:08.935Z,6.00
2019-04-27T09:57:37.575Z,7.07
2019-04-27T10:00:12.029Z,6.40
2019-04-27T10:02:40.718Z,5.77
2019-04-27T10:05:09.607Z,5.57
2019-04-27T10:07:38.343Z,5.63
2019-04-27T10:10:07.728Z,5.43
2019-04-27T10:12:36.985Z,6.40
2019-04-27T10:15:06.660Z,6.37
2019-04-27T10:17:35.346Z,6.33
2019-04-27T10:20:05.967Z,4.93
2019-04-27T10:22:41.305Z,6.43
2019-04-27T10:25:08.046Z,5.27
2019-04-27T10:27:36.673Z,6.33
2019-04-27T10:30:08.932Z,6.50
2019-04-27T10:32:37.632Z,6.03
2019-04-27T10:35:07.852Z,6.50
2019-04-27T10:37:36.604Z,5.97
2019-04-27T10:40:06.303Z,5.30
2019-04-27T10:42:35.813Z,6.87
2019-04-27T10:45:08.095Z,6.10
2019-04-27T10:47:36.718Z,6.83
2019-04-27T10:50:06.919Z,6.60
2019-04-27T10:52:35.660Z,6.97
2019-04-27T10:55:05.953Z,6.30
2019-04-27T10:57:34.836Z,6.50
2019-04-27T11:00:06.587Z,5.80
2019-04-27T11:02:35.446Z,5.67
2019-04-27T11:05:10.197Z,6.30
2019-04-27T11:07:39.884Z,6.23
2019-04-27T11:10:08.686Z,6.87
2019-04-27T11:12:37.437Z,6.37
2019-04-27T11:15:08.626Z,6.17
2019-04-27T11:17:37.333Z,6.70
2019-04-27T11:20:08.127Z,6.20
2019-04-27T11:22:36.835Z,5.63
2019-04-27T11:25:07.933Z,6.23
2019-04-27T11:27:36.655Z,6.07
2019-04-27T11:30:08.253Z,6.43
2019-04-27T11:32:37.075Z,6.37
2019-04-27T11:35:20.524Z,5.93
2019-04-27T11:37:50.882Z,6.80
2019-04-27T11:40:21.786Z,6.03
2019-04-27T11:42:50.628Z,5.47
2019-04-27T11:45:19.437Z,4.53
2019-04-27T11:47:48.130Z,4.50
2019-04-27T11:50:18.661Z,5.90
2019-04-27T11:52:47.551Z,4.70
2019-04-27T11:55:16.858Z,4.37
2019-04-27T11:57:47.043Z,3.70
2019-04-27T12:00:19.258Z,3.77
2019-04-27T12:02:47.951Z,3.07
2019-04-27T12:05:16.878Z,3.33
2019-04-27T12:07:47.473Z,3.47
2019-04-27T12:10:16.277Z,2.70
2019-04-27T12:12:46.366Z,4.00
2019-04-27T12:15:16.370Z,3.10
2019-04-27T12:17:46.115Z,3.43
2019-04-27T12:20:15.923Z,3.63
2019-04-27T12:22:45.523Z,4.43
2019-04-27T12:25:15.723Z,5.00
2019-04-27T12:28:02.233Z,3.83
2019-04-27T12:30:32.489Z,3.90
2019-04-27T12:33:01.183Z,3.77
2019-04-27T12:35:29.911Z,4.17
2019-04-27T12:37:58.609Z,5.03
2019-04-27T12:40:27.304Z,4.80
2019-04-27T12:42:56.046Z,4.87
2019-04-27T12:45:26.557Z,5.23
2019-04-27T12:47:56.612Z,5.07
2019-04-27T12:50:26.082Z,4.67
2019-04-27T12:52:59.439Z,4.47
2019-04-27T12:55:38.884Z,4.67
2019-04-27T12:58:09.145Z,5.30
2019-04-27T13:00:39.488Z,5.47
2019-04-27T13:03:08.215Z,5.23
2019-04-27T13:05:36.907Z,5.37
2019-04-27T13:08:05.604Z,5.20
2019-04-27T13:10:34.335Z,5.43
2019-04-27T13:13:03.023Z,5.33
2019-04-27T13:15:31.716Z,5.90
2019-04-27T13:18:00.378Z,10.50
2019-04-27T13:20:29.086Z,8.87
2019-04-27T13:22:57.776Z,6.93
2019-04-27T13:25:26.519Z,7.17
2019-04-27T13:27:56.712Z,5.63
2019-04-27T13:30:25.882Z,5.20
2019-04-27T13:32:56.223Z,5.07
2019-04-27T13:35:25.854Z,4.57
2019-04-27T13:37:55.943Z,4.37
2019-04-27T13:40:25.888Z,4.53
2019-04-27T13:43:11.095Z,4.73
2019-04-27T13:45:44.126Z,4.43
2019-04-27T13:48:32.265Z,4.23
2019-04-27T13:51:17.478Z,3.77
2019-04-27T13:53:46.184Z,4.27
2019-04-27T13:56:14.826Z,4.33
2019-04-27T13:58:44.253Z,3.73
2019-04-27T14:01:12.951Z,3.50
2019-04-27T14:03:41.679Z,4.10
2019-04-27T14:06:10.411Z,4.70
2019-04-27T14:08:39.120Z,5.10
2019-04-27T14:11:09.563Z,3.80
2019-04-27T14:13:39.115Z,3.73
2019-04-27T14:16:08.753Z,4.87
2019-04-27T14:18:38.484Z,4.53
2019-04-27T14:21:09.292Z,5.30
2019-04-27T14:23:38.551Z,5.20
2019-04-27T14:26:08.791Z,7.60
2019-04-27T14:28:37.657Z,8.07
2019-04-27T14:31:06.355Z,6.60
2019-04-27T14:33:35.051Z,7.63
2019-04-27T14:36:03.845Z,5.13
2019-04-27T14:38:32.536Z,4.13
2019-04-27T14:41:01.233Z,4.37
2019-04-27T14:43:29.957Z,4.10
2019-04-27T14:45:58.675Z,4.80
2019-04-27T14:48:29.303Z,2.87
2019-04-27T14:50:59.056Z,3.50
2019-04-27T14:53:28.295Z,4.03
2019-04-27T14:55:58.479Z,2.80
2019-04-27T14:58:28.296Z,1.63
2019-04-27T15:00:58.557Z,1.80
2019-04-27T15:03:27.290Z,2.00
2019-04-27T15:05:56.213Z,2.13
2019-04-27T15:08:25.572Z,1.70
2019-04-27T15:10:54.499Z,2.17
2019-04-27T15:13:23.213Z,1.80
2019-04-27T15:15:51.973Z,1.57
2019-04-27T15:18:20.681Z,2.80
2019-04-27T15:20:49.415Z,2.47
2019-04-27T15:23:20.018Z,2.50
2019-04-27T15:25:50.003Z,2.93
2019-04-27T15:28:23.143Z,3.13
2019-04-27T15:30:53.403Z,3.17
2019-04-27T15:33:39.940Z,4.93
2019-04-27T15:36:10.415Z,3.77
2019-04-27T15:38:47.720Z,3.63
2019-04-27T15:41:31.619Z,2.73
2019-04-27T15:44:05.703Z,2.97
2019-04-27T15:46:33.818Z,3.17
2019-04-27T15:49:07.016Z,3.50
2019-04-27T15:51:33.243Z,4.00
2019-04-27T15:54:02.128Z,3.90
2019-04-27T15:56:35.158Z,3.70
2019-04-27T15:59:01.262Z,3.30
2019-04-27T16:01:35.766Z,3.97
2019-04-27T16:04:02.444Z,3.60
2019-04-27T16:06:30.944Z,3.27
2019-04-27T16:08:59.656Z,3.03
2019-04-27T16:11:28.381Z,2.80
2019-04-27T16:13:58.650Z,3.10
2019-04-27T16:16:29.129Z,2.60
2019-04-27T16:18:59.429Z,2.50
2019-04-27T16:21:31.387Z,2.40
2019-04-27T16:23:58.699Z,3.37
2019-04-27T16:26:28.554Z,2.67
2019-04-27T16:28:58.111Z,3.23
2019-04-27T16:31:31.479Z,3.00
2019-04-27T16:33:59.101Z,3.00
2019-04-27T16:36:28.852Z,4.17
2019-04-27T16:38:59.130Z,2.97
2019-04-27T16:41:28.192Z,3.37
2019-04-27T16:43:58.186Z,3.10
2019-04-27T16:46:28.495Z,3.13
2019-04-27T16:48:59.290Z,2.87
2019-04-27T16:51:29.690Z,3.07
2019-04-27T16:53:58.425Z,4.13
2019-04-27T16:56:28.656Z,3.33
2019-04-27T16:59:11.503Z,2.53
2019-04-27T17:01:30.395Z,2.23
2019-04-27T17:03:59.554Z,2.50
2019-04-27T17:06:29.654Z,2.60
2019-04-27T17:09:05.623Z,2.37
2019-04-27T17:11:29.790Z,2.30
2019-04-27T17:14:00.221Z,2.70
2019-04-27T17:16:34.082Z,2.40
2019-04-27T17:19:19.226Z,2.07
2019-04-27T17:21:48.529Z,2.17
2019-04-27T17:24:21.098Z,2.07
2019-04-27T17:26:49.817Z,2.13
2019-04-27T17:29:20.449Z,2.20
2019-04-27T17:31:55.206Z,3.07
2019-04-27T17:34:25.203Z,2.47
2019-04-27T17:36:54.627Z,2.90
2019-04-27T17:39:23.511Z,2.60
2019-04-27T17:41:52.959Z,3.50
2019-04-27T17:44:23.110Z,2.90
2019-04-27T17:46:52.062Z,2.90
2019-04-27T17:49:20.783Z,3.20
2019-04-27T17:51:49.474Z,2.53
2019-04-27T17:54:18.296Z,2.37
2019-04-27T17:56:49.577Z,2.33
2019-04-27T17:59:20.685Z,3.23
2019-04-27T18:01:49.542Z,3.47
2019-04-27T18:04:18.611Z,3.50
2019-04-27T18:06:48.384Z,2.63
2019-04-27T18:09:18.776Z,4.10
2019-04-27T18:11:48.564Z,3.80
2019-04-27T18:14:19.294Z,3.93
2019-04-27T18:16:48.255Z,4.20
2019-04-27T18:19:21.439Z,3.40
2019-04-27T18:22:01.079Z,3.77
2019-04-27T18:24:31.413Z,3.47
2019-04-27T18:27:04.330Z,4.03
2019-04-27T18:29:32.103Z,4.37
2019-04-27T18:32:00.834Z,4.33
2019-04-27T18:34:29.526Z,4.67
2019-04-27T18:36:58.208Z,4.60
2019-04-27T18:39:26.943Z,4.53
2019-04-27T18:41:55.641Z,5.60
2019-04-27T18:44:29.288Z,5.33
2019-04-27T18:46:58.833Z,4.60
2019-04-27T18:49:30.114Z,4.70
2019-04-27T18:52:15.455Z,4.83
2019-04-27T18:54:44.144Z,5.40
2019-04-27T18:57:15.153Z,4.70
2019-04-27T18:59:43.218Z,5.33
2019-04-27T19:02:11.914Z,5.57
2019-04-27T19:04:40.523Z,5.30
2019-04-27T19:07:09.269Z,5.03
2019-04-27T19:09:37.975Z,5.20
2019-04-27T19:12:06.674Z,6.20
2019-04-27T19:14:35.394Z,6.03
2019-04-27T19:17:04.408Z,6.03
2019-04-27T19:19:33.109Z,5.57
2019-04-27T19:22:01.764Z,4.90
2019-04-27T19:24:30.455Z,5.10
2019-04-27T19:27:00.714Z,5.60
2019-04-27T19:29:31.012Z,6.33
2019-04-27T19:32:01.277Z,7.10
2019-04-27T19:34:29.981Z,7.57
2019-04-27T19:36:59.312Z,6.97
2019-04-27T19:39:28.570Z,7.40
2019-04-27T19:42:01.383Z,7.97
2019-04-27T19:44:29.245Z,11.93
2019-04-27T19:46:59.950Z,10.53
2019-04-27T19:49:29.379Z,6.30
2019-04-27T19:51:58.981Z,4.40
2019-04-27T19:54:29.945Z,5.43
2019-04-27T19:56:59.557Z,5.50
2019-04-27T19:59:32.962Z,5.43
2019-04-27T20:02:03.226Z,5.27
2019-04-27T20:04:36.449Z,4.90
2019-04-27T20:07:05.390Z,4.57
2019-04-27T20:09:50.542Z,3.70
2019-04-27T20:12:21.116Z,3.43
2019-04-27T20:14:55.632Z,3.90
2019-04-27T20:17:26.717Z,3.60
2019-04-27T20:19:56.218Z,3.30
2019-04-27T20:22:25.009Z,4.13
2019-04-27T20:24:53.777Z,4.10
2019-04-27T20:27:22.456Z,3.73
2019-04-27T20:29:51.356Z,3.93
2019-04-27T20:32:21.535Z,3.70
2019-04-27T20:34:51.299Z,4.57
2019-04-27T20:37:21.000Z,4.20
2019-04-27T20:39:51.437Z,3.80
2019-04-27T20:42:21.177Z,3.30
2019-04-27T20:44:51.661Z,3.63
2019-04-27T20:47:20.585Z,3.77
2019-04-27T20:49:49.269Z,3.40
2019-04-27T20:52:25.661Z,3.63
2019-04-27T20:54:54.285Z,3.50
2019-04-27T20:57:22.978Z,3.60
2019-04-27T20:59:52.344Z,3.37
2019-04-27T21:02:34.605Z,2.67
2019-04-27T21:05:21.184Z,3.30
2019-04-27T21:08:01.448Z,2.30
2019-04-27T21:10:30.773Z,2.60
2019-04-27T21:13:01.022Z,3.67
2019-04-27T21:15:31.419Z,4.07
2019-04-27T21:18:01.269Z,7.10
2019-04-27T21:20:30.956Z,4.97
2019-04-27T21:23:01.795Z,4.33
2019-04-27T21:25:31.506Z,3.70
2019-04-27T21:28:14.975Z,2.33
2019-04-27T21:30:31.394Z,2.43
2019-04-27T21:33:01.083Z,2.57
2019-04-27T21:35:29.941Z,2.27
2019-04-27T21:37:58.625Z,2.33
2019-04-27T21:40:27.355Z,2.10
2019-04-27T21:42:56.059Z,2.23
2019-04-27T21:45:24.681Z,1.80
2019-04-27T21:47:53.403Z,1.93
2019-04-27T21:50:23.184Z,2.73
2019-04-27T21:53:11.039Z,3.10
2019-04-27T21:55:39.877Z,2.43
2019-04-27T21:58:08.572Z,2.10
2019-04-27T22:00:43.120Z,2.40
2019-04-27T22:03:13.661Z,2.40
2019-04-27T22:05:42.371Z,2.03
2019-04-27T22:08:11.775Z,2.30
2019-04-27T22:10:40.515Z,2.20
2019-04-27T22:13:09.203Z,1.97
2019-04-27T22:15:37.940Z,2.13
2019-04-27T22:18:06.617Z,2.13
2019-04-27T22:20:35.913Z,2.60
2019-04-27T22:23:08.935Z,1.80
2019-04-27T22:25:38.819Z,2.00
2019-04-27T22:28:07.441Z,2.00
2019-04-27T22:30:36.376Z,2.07
2019-04-27T22:33:05.058Z,2.13
2019-04-27T22:35:33.756Z,2.50
2019-04-27T22:38:02.421Z,2.10
2019-04-27T22:40:41.974Z,2.13
2019-04-27T22:43:27.261Z,2.30
2019-04-27T22:45:56.549Z,1.93
2019-04-27T22:48:25.256Z,1.80
2019-04-27T22:50:53.982Z,1.83
2019-04-27T22:53:22.667Z,1.80
2019-04-27T22:56:08.929Z,2.23
2019-04-27T22:58:40.656Z,1.80
2019-04-27T23:01:27.006Z,2.63
2019-04-27T23:03:57.253Z,3.73
2019-04-27T23:06:25.873Z,3.07
2019-04-27T23:08:54.530Z,3.10
2019-04-27T23:11:23.218Z,2.60
2019-04-27T23:13:52.530Z,2.47
2019-04-27T23:16:22.802Z,2.40
2019-04-27T23:18:51.618Z,2.10
2019-04-27T23:21:20.871Z,2.10
2019-04-27T23:23:51.588Z,3.37
2019-04-27T23:26:21.143Z,2.93
2019-04-27T23:28:51.395Z,3.20
2019-04-27T23:31:27.823Z,2.77
2019-04-27T23:33:56.513Z,3.60
2019-04-27T23:36:25.210Z,3.63
2019-04-27T23:38:53.949Z,4.30
2019-04-27T23:41:22.564Z,3.80
2019-04-27T23:43:51.251Z,2.97
2019-04-27T23:46:21.477Z,1.80
2019-04-27T23:48:52.064Z,2.13
2019-04-27T23:51:31.233Z,2.20
2019-04-27T23:54:01.589Z,1.77
2019-04-27T23:56:31.803Z,1.70
2019-04-27T23:59:00.631Z,2.00
